LOWI

Innsbruck

Airport
ICAO code
LOWI
IATA Code
INN
Summary
ICAO Region
EUR
ICAO Territory
Location

Innsbruck, Tyrol

Serving
Innsbruck
Elevation
1906 ft
Coordinates
47° 15' 37" N , 11° 20' 38" E
KCC
Metar
LOWI 161420Z 27024G34KT 9999 FEW060 SCT080 12/M05 Q1005 NOSIG

International airport serving the Tyrol.

Climatology

Humid Continental climate (Köppen climate classification Dfb)

Runways

Designator Length Width Surface Rops
8/26 2000 45 ASP Yes/Yes

Airport map

Aerial View

SKYbrary Partners:

Safety knowledge contributed by: